Time;durP1;ratioP1;P1;durP2;ratioP2;P2;SDS_P1;SDS_P2;PMS_P1;PMS_P2;Temp;Humidity;BMP_temperature;BMP_pressure;BME280_temperature;BME280_humidity;BME280_pressure;Samples;Min_cycle;Max_cycle;Signal;HPM_P1;HPM_P2
2022/04/01 00:02:21;;;;;;;1.43;0.80;;;1.50;70.40;;;;;;5088061;28;20236;-83
2022/04/01 00:04:48;;;;;;;1.63;1.00;;;1.50;70.30;;;;;;5076700;28;20878;-84
2022/04/01 00:07:15;;;;;;;1.57;0.93;;;1.50;70.20;;;;;;5082223;28;20233;-83
2022/04/01 00:09:42;;;;;;;1.73;0.87;;;1.50;70.70;;;;;;5089740;28;20304;-84
2022/04/01 00:12:10;;;;;;;2.27;0.93;;;1.50;71.40;;;;;;5071464;28;20224;-83
2022/04/01 00:14:38;;;;;;;1.87;0.90;;;1.50;71.20;;;;;;5087173;28;20804;-85
2022/04/01 00:17:06;;;;;;;2.23;1.07;;;1.50;71.30;;;;;;5074977;28;20314;-85
2022/04/01 00:19:33;;;;;;;1.80;0.90;;;1.40;71.20;;;;;;5066761;28;20227;-84
2022/04/01 00:22:00;;;;;;;3.00;1.10;;;1.50;71.60;;;;;;5074906;28;20689;-84
2022/04/01 00:24:26;;;;;;;1.53;0.90;;;1.50;71.40;;;;;;5071483;28;20235;-84
2022/04/01 00:26:53;;;;;;;1.70;0.97;;;1.50;71.20;;;;;;5087797;28;20808;-84
2022/04/01 00:29:20;;;;;;;1.70;0.83;;;1.50;71.40;;;;;;5087364;28;20229;-84
2022/04/01 00:31:49;;;;;;;2.60;0.97;;;1.50;71.80;;;;;;5090033;28;20231;-84
2022/04/01 00:34:17;;;;;;;2.90;1.10;;;1.50;71.80;;;;;;5087105;28;20601;-84
2022/04/01 00:36:44;;;;;;;2.57;0.80;;;1.50;72.00;;;;;;5075700;28;20588;-83
2022/04/01 00:39:11;;;;;;;2.23;1.00;;;1.50;72.00;;;;;;5065695;28;20226;-84
2022/04/01 00:41:40;;;;;;;3.67;0.97;;;1.50;72.30;;;;;;5087121;28;20222;-83
2022/04/01 00:44:15;;;;;;;5.53;0.93;;;1.50;72.50;;;;;;5088097;28;20221;-84
2022/04/01 00:46:42;;;;;;;1.90;0.87;;;1.50;72.00;;;;;;5068759;28;20299;-84
2022/04/01 00:49:11;;;;;;;3.33;1.00;;;1.50;72.30;;;;;;5087684;28;20224;-85
2022/04/01 00:51:39;;;;;;;3.43;0.97;;;1.50;72.30;;;;;;5074801;28;20229;-84
2022/04/01 00:54:06;;;;;;;2.20;0.90;;;1.50;72.00;;;;;;5074802;28;20228;-83
2022/04/01 00:56:35;;;;;;;3.23;1.00;;;1.40;72.30;;;;;;5072779;28;20249;-84
2022/04/01 00:59:03;;;;;;;1.40;0.80;;;1.40;72.50;;;;;;5074056;28;20245;-83
2022/04/01 01:01:31;;;;;;;2.77;1.17;;;1.40;72.30;;;;;;5075763;28;20233;-84
2022/04/01 01:04:01;;;;;;;1.27;0.77;;;1.40;72.50;;;;;;5068057;28;20254;-83
2022/04/01 01:06:30;;;;;;;1.53;1.03;;;1.40;72.70;;;;;;5088110;28;20309;-84
2022/04/01 01:08:57;;;;;;;1.80;1.10;;;1.40;73.00;;;;;;5072026;28;20832;-83
2022/04/01 01:11:25;;;;;;;2.53;1.33;;;1.40;73.00;;;;;;5075336;28;20267;-83
2022/04/01 01:13:53;;;;;;;1.90;1.00;;;1.40;73.10;;;;;;5088972;28;20225;-84
2022/04/01 01:16:20;;;;;;;1.87;1.10;;;1.40;73.40;;;;;;5080048;28;20221;-83
2022/04/01 01:18:58;;;;;;;2.00;1.00;;;1.40;73.10;;;;;;5090373;28;20691;-82
2022/04/01 01:21:26;;;;;;;1.53;0.83;;;1.40;73.10;;;;;;5069321;28;20304;-83
2022/04/01 01:23:57;;;;;;;2.80;0.83;;;1.40;73.10;;;;;;5071148;28;20589;-83
2022/04/01 01:26:25;;;;;;;1.73;0.90;;;1.40;73.30;;;;;;5069708;28;20226;-83
2022/04/01 01:28:52;;;;;;;1.93;0.90;;;1.40;73.30;;;;;;5089047;28;20240;-82
2022/04/01 01:31:19;;;;;;;2.30;1.20;;;1.40;73.40;;;;;;5087253;28;20228;-82
2022/04/01 01:33:45;;;;;;;2.73;1.03;;;1.30;73.60;;;;;;5087509;28;20219;-83
2022/04/01 01:36:12;;;;;;;1.87;0.90;;;1.30;73.70;;;;;;5071894;28;20227;-85
2022/04/01 01:38:39;;;;;;;2.13;1.00;;;1.30;73.80;;;;;;5073772;28;20232;-82
2022/04/01 01:41:06;;;;;;;3.13;1.00;;;1.30;73.80;;;;;;5068897;28;20227;-81
2022/04/01 01:43:34;;;;;;;3.10;0.97;;;1.20;74.00;;;;;;5070049;28;20259;-82
2022/04/01 01:46:02;;;;;;;1.73;1.00;;;1.20;74.10;;;;;;5069497;28;20710;-82
2022/04/01 01:48:29;;;;;;;2.47;1.00;;;1.20;74.30;;;;;;5068533;28;20257;-83
2022/04/01 01:56:25;;;;;;;1.43;0.93;;;1.20;75.00;;;;;;5087617;28;20584;-83
2022/04/01 01:59:00;;;;;;;1.63;1.00;;;1.20;75.00;;;;;;5069126;28;20234;-83
2022/04/01 02:01:28;;;;;;;2.77;1.03;;;1.20;75.20;;;;;;5086708;28;20730;-84
2022/04/01 02:03:56;;;;;;;2.57;0.80;;;1.20;75.40;;;;;;5070731;28;20221;-83
2022/04/01 02:06:23;;;;;;;2.23;0.90;;;1.20;75.30;;;;;;5087438;28;20355;-82
2022/04/01 02:08:53;;;;;;;2.20;0.87;;;1.20;75.20;;;;;;5072667;28;20276;-82
2022/04/01 02:11:21;;;;;;;1.57;0.90;;;1.10;75.60;;;;;;5069410;28;20252;-82
2022/04/01 02:13:50;;;;;;;2.20;0.90;;;1.10;75.70;;;;;;5072773;28;20272;-82
2022/04/01 02:16:21;;;;;;;2.10;0.80;;;1.10;75.70;;;;;;5064836;28;20779;-82
2022/04/01 02:18:48;;;;;;;2.40;1.00;;;1.10;75.70;;;;;;5072665;28;20305;-83
2022/04/01 02:21:15;;;;;;;2.53;0.80;;;1.10;75.70;;;;;;5062408;28;20225;-82
2022/04/01 02:23:44;;;;;;;1.37;0.80;;;1.10;75.80;;;;;;5070445;28;20316;-83
2022/04/01 02:26:13;;;;;;;1.33;0.70;;;1.10;76.10;;;;;;5070407;28;20324;-83
2022/04/01 02:28:41;;;;;;;1.53;0.80;;;1.10;76.30;;;;;;5073417;28;20245;-83
2022/04/01 02:31:11;;;;;;;1.47;0.70;;;1.10;76.10;;;;;;5072674;28;20825;-83
2022/04/01 02:33:48;;;;;;;2.50;0.90;;;1.10;76.10;;;;;;5089124;28;20230;-83
2022/04/01 02:36:14;;;;;;;3.23;0.87;;;1.10;76.10;;;;;;5070870;28;20622;-83
2022/04/01 02:38:42;;;;;;;2.57;0.90;;;1.00;76.10;;;;;;5072320;28;20248;-83
2022/04/01 02:41:12;;;;;;;1.33;1.00;;;1.10;76.10;;;;;;5088805;28;20233;-83
2022/04/01 02:43:40;;;;;;;2.60;0.87;;;1.10;76.30;;;;;;5078531;28;20252;-83
2022/04/01 02:46:10;;;;;;;1.57;0.57;;;1.10;76.40;;;;;;5088955;28;20222;-82
2022/04/01 02:48:44;;;;;;;1.80;0.70;;;1.10;76.10;;;;;;5080594;28;20226;-82
2022/04/01 02:51:33;;;;;;;1.47;0.67;;;1.10;76.10;;;;;;5091959;28;20222;-83
2022/04/01 02:54:10;;;;;;;2.67;1.20;;;1.10;76.00;;;;;;5067764;28;20289;-83
2022/04/01 02:56:40;;;;;;;2.00;0.90;;;1.10;76.00;;;;;;5073976;28;20335;-83
2022/04/01 02:59:08;;;;;;;1.93;0.80;;;1.10;76.00;;;;;;5075163;28;20328;-82
2022/04/01 03:01:36;;;;;;;4.00;1.17;;;1.10;76.00;;;;;;5069384;28;20302;-83
2022/04/01 03:04:03;;;;;;;1.33;0.70;;;1.10;76.00;;;;;;5078792;28;20748;-83
2022/04/01 03:06:36;;;;;;;2.60;1.00;;;1.10;76.10;;;;;;5075958;28;20237;-82
2022/04/01 03:09:03;;;;;;;1.80;0.90;;;1.10;76.10;;;;;;5079560;28;20315;-83
2022/04/01 03:11:30;;;;;;;2.20;1.03;;;1.00;75.90;;;;;;5076354;28;20235;-82
2022/04/01 03:13:57;;;;;;;1.17;0.60;;;1.10;76.20;;;;;;5073478;28;20214;-82
2022/04/01 03:16:56;;;;;;;2.00;0.90;;;1.10;76.00;;;;;;5086816;28;20296;-82
2022/04/01 03:19:22;;;;;;;2.13;1.20;;;1.10;76.10;;;;;;5089230;28;20258;-82
2022/04/01 03:21:50;;;;;;;2.67;1.33;;;1.10;75.80;;;;;;5073813;28;20288;-82
2022/04/01 03:24:17;;;;;;;2.53;1.20;;;1.10;76.00;;;;;;5072625;28;20750;-82
2022/04/01 03:26:44;;;;;;;1.63;0.97;;;1.10;76.20;;;;;;5075548;28;20338;-83
2022/04/01 03:29:11;;;;;;;3.70;1.20;;;1.10;76.20;;;;;;5081856;28;20225;-82
2022/04/01 03:31:39;;;;;;;3.27;1.10;;;1.10;75.60;;;;;;5078866;28;20241;-82
2022/04/01 03:34:06;;;;;;;2.20;1.13;;;1.10;76.40;;;;;;5069575;28;20222;-82
2022/04/01 03:36:33;;;;;;;3.17;1.20;;;1.10;75.80;;;;;;5075997;28;20601;-82
2022/04/01 03:39:02;;;;;;;2.47;1.20;;;1.10;76.00;;;;;;5076418;28;20309;-82
2022/04/01 03:41:42;;;;;;;3.03;1.30;;;1.10;76.00;;;;;;5074474;28;20228;-81
2022/04/01 03:44:10;;;;;;;3.97;1.10;;;1.10;75.90;;;;;;5076552;28;20283;-82
2022/04/01 03:46:48;;;;;;;3.20;1.27;;;1.10;75.70;;;;;;5073104;28;20237;-81
2022/04/01 03:49:21;;;;;;;3.33;1.30;;;1.10;76.20;;;;;;5072294;28;20276;-81
2022/04/01 03:51:50;;;;;;;4.50;1.20;;;1.20;76.20;;;;;;5075534;28;20233;-83
2022/04/01 03:54:19;;;;;;;2.83;1.27;;;1.10;76.70;;;;;;5074628;28;20868;-82
2022/04/01 03:57:21;;;;;;;2.73;1.50;;;1.20;76.10;;;;;;5089697;28;20874;-82
2022/04/01 04:00:12;;;;;;;3.60;1.37;;;1.20;76.10;;;;;;5087496;28;20248;-82
2022/04/01 04:02:46;;;;;;;3.83;1.67;;;1.20;76.40;;;;;;5073130;28;20237;-82
2022/04/01 04:05:19;;;;;;;6.87;2.83;;;1.10;76.70;;;;;;5067242;28;20219;-82
2022/04/01 04:07:48;;;;;;;4.53;1.60;;;1.20;76.80;;;;;;5074975;28;20240;-82
2022/04/01 04:10:21;;;;;;;2.77;1.57;;;1.20;77.00;;;;;;5086205;28;20226;-82
2022/04/01 04:13:06;;;;;;;3.90;1.60;;;1.10;77.10;;;;;;5072856;28;20846;-82
2022/04/01 04:15:41;;;;;;;2.27;1.50;;;1.20;77.60;;;;;;5071862;28;20226;-82
2022/04/01 04:18:13;;;;;;;2.40;1.60;;;1.20;77.90;;;;;;5070667;28;20278;-83
2022/04/01 04:20:46;;;;;;;3.60;1.63;;;1.10;78.20;;;;;;5074383;28;20219;-82
2022/04/01 04:23:18;;;;;;;3.13;1.53;;;1.20;78.30;;;;;;5071167;28;20237;-83
2022/04/01 04:25:58;;;;;;;3.83;1.43;;;1.10;78.60;;;;;;5070924;28;20238;-82
2022/04/01 04:28:27;;;;;;;2.57;1.60;;;1.10;78.80;;;;;;5088490;28;20885;-82
2022/04/01 04:31:14;;;;;;;2.60;1.77;;;1.20;79.20;;;;;;5071372;28;20240;-83
2022/04/01 04:33:56;;;;;;;3.33;1.90;;;1.20;79.50;;;;;;5086928;28;20238;-78
2022/04/01 04:36:33;;;;;;;5.43;1.70;;;1.20;79.80;;;;;;5070052;28;20228;-78
2022/04/01 04:39:03;;;;;;;6.33;1.77;;;1.20;79.90;;;;;;5061272;28;20294;-78
2022/04/01 04:41:33;;;;;;;9.13;2.97;;;1.20;80.00;;;;;;5064934;28;20227;-78
2022/04/01 04:44:09;;;;;;;6.83;2.73;;;1.20;80.20;;;;;;5071171;28;20802;-79
2022/04/01 04:46:37;;;;;;;3.53;1.70;;;1.30;80.80;;;;;;5069712;28;20248;-77
2022/04/01 04:49:05;;;;;;;3.30;1.90;;;1.20;80.90;;;;;;5069413;28;20913;-76
2022/04/01 04:51:32;;;;;;;2.67;1.60;;;1.20;80.30;;;;;;5062761;28;20223;-77
2022/04/01 04:54:24;;;;;;;2.30;1.77;;;1.30;80.50;;;;;;5068318;28;20295;-77
2022/04/01 04:57:15;;;;;;;5.97;2.07;;;1.20;80.60;;;;;;5074170;28;20219;-79
2022/04/01 04:59:43;;;;;;;3.60;1.73;;;1.20;80.60;;;;;;5067816;28;20725;-78
2022/04/01 05:02:18;;;;;;;3.43;1.73;;;1.30;80.30;;;;;;5067317;28;20255;-79
2022/04/01 05:05:02;;;;;;;2.87;1.93;;;1.30;81.00;;;;;;5066950;28;20704;-79
2022/04/01 05:07:50;;;;;;;3.67;2.00;;;1.30;80.70;;;;;;5071620;28;20295;-79
2022/04/01 05:10:53;;;;;;;4.17;1.90;;;1.30;80.70;;;;;;5031939;28;20852;-79
2022/04/01 05:13:25;;;;;;;8.73;2.27;;;1.30;80.90;;;;;;5066712;28;20214;-79
2022/04/01 05:16:05;;;;;;;5.23;1.87;;;1.30;80.70;;;;;;5071705;28;20226;-79
2022/04/01 05:18:42;;;;;;;5.60;2.00;;;1.40;81.40;;;;;;5073312;28;20590;-78
2022/04/01 05:21:20;;;;;;;5.93;2.17;;;1.30;81.20;;;;;;5065753;28;20219;-79
2022/04/01 05:23:54;;;;;;;4.37;2.03;;;1.30;81.70;;;;;;5083024;28;20264;-78
2022/04/01 05:26:25;;;;;;;6.67;2.07;;;1.30;82.00;;;;;;5064952;28;22039;-78
2022/04/01 05:29:25;;;;;;;5.07;2.40;;;1.40;81.70;;;;;;5082713;28;20247;-78
2022/04/01 05:32:01;;;;;;;4.13;2.47;;;1.40;81.70;;;;;;5087721;28;20257;-79
2022/04/01 05:34:34;;;;;;;4.50;2.13;;;1.40;81.80;;;;;;5072821;28;20221;-80
2022/04/01 05:37:03;;;;;;;2.93;2.00;;;1.40;81.70;;;;;;5091261;28;20288;-79
2022/04/01 05:39:34;;;;;;;6.63;2.40;;;1.40;81.70;;;;;;5075301;28;20230;-79
2022/04/01 05:42:06;;;;;;;5.40;2.50;;;1.40;82.00;;;;;;5094111;28;20210;-79
2022/04/01 05:44:41;;;;;;;4.50;2.43;;;1.40;82.00;;;;;;5066077;28;20279;-80
2022/04/01 05:47:10;;;;;;;3.93;2.30;;;1.50;82.20;;;;;;5076130;28;20221;-79
2022/04/01 05:49:41;;;;;;;5.03;2.40;;;1.50;82.50;;;;;;5072516;28;20222;-79
2022/04/01 05:52:10;;;;;;;5.93;2.43;;;1.50;82.50;;;;;;5072799;28;20223;-79
2022/04/01 05:54:39;;;;;;;4.40;2.30;;;1.50;82.40;;;;;;5075419;28;20215;-80
2022/04/01 05:57:08;;;;;;;4.80;2.23;;;1.50;82.40;;;;;;5078665;28;20211;-80
2022/04/01 05:59:35;;;;;;;6.00;2.20;;;1.50;82.50;;;;;;5090885;28;20733;-79
2022/04/01 06:02:22;;;;;;;5.03;2.20;;;1.50;82.50;;;;;;5076403;28;20564;-79
2022/04/01 06:05:12;;;;;;;6.60;2.07;;;1.50;83.00;;;;;;5071690;28;20225;-79
2022/04/01 06:07:47;;;;;;;5.30;2.17;;;1.50;82.80;;;;;;5072936;28;20279;-79
2022/04/01 06:10:24;;;;;;;7.40;2.60;;;1.50;83.00;;;;;;5073526;28;20779;-79
2022/04/01 06:13:02;;;;;;;3.90;2.10;;;1.50;83.10;;;;;;5089728;28;20226;-79
2022/04/01 06:16:11;;;;;;;5.30;2.30;;;1.60;83.70;;;;;;5044582;28;20228;-80
2022/04/01 06:18:48;;;;;;;3.07;2.07;;;1.60;83.20;;;;;;5088202;28;20269;-79
2022/04/01 06:21:20;;;;;;;3.60;2.27;;;1.60;83.20;;;;;;5071902;28;20252;-80
2022/04/01 06:24:02;;;;;;;4.37;2.20;;;1.60;83.50;;;;;;5087833;28;20247;-79
2022/04/01 06:26:34;;;;;;;3.00;2.23;;;1.70;83.30;;;;;;5078207;28;21007;-80
2022/04/01 06:29:09;;;;;;;5.60;2.20;;;1.70;83.30;;;;;;5091197;28;20224;-80
2022/04/01 06:31:36;;;;;;;6.77;2.27;;;1.70;83.40;;;;;;5070710;28;20231;-80
2022/04/01 06:34:11;;;;;;;3.67;2.20;;;1.80;83.30;;;;;;5075482;28;20226;-79
2022/04/01 06:37:00;;;;;;;3.43;2.13;;;1.80;83.50;;;;;;5086217;28;20620;-79
2022/04/01 06:39:35;;;;;;;4.47;2.47;;;1.80;83.50;;;;;;5077597;28;20801;-80
2022/04/01 06:42:03;;;;;;;5.70;2.10;;;1.90;83.50;;;;;;5072223;28;20230;-80
2022/04/01 06:45:02;;;;;;;4.73;2.20;;;1.90;83.50;;;;;;5047409;28;20225;-79
2022/04/01 06:47:48;;;;;;;5.87;2.37;;;2.00;83.60;;;;;;5087299;28;20651;-79
2022/04/01 06:50:17;;;;;;;4.07;2.20;;;2.00;83.50;;;;;;5070485;28;20228;-79
2022/04/01 06:52:53;;;;;;;4.70;2.17;;;2.00;83.60;;;;;;5090137;28;20586;-79
2022/04/01 06:55:38;;;;;;;6.77;2.40;;;2.00;83.50;;;;;;5088683;28;20257;-79
2022/04/01 06:58:26;;;;;;;3.57;2.20;;;2.10;83.70;;;;;;5071580;28;20230;-79
2022/04/01 07:01:02;;;;;;;3.77;2.30;;;2.20;83.80;;;;;;5084241;28;20282;-79
2022/04/01 07:03:30;;;;;;;5.17;2.57;;;2.20;83.70;;;;;;5087987;28;20233;-79
2022/04/01 07:05:58;;;;;;;3.87;2.17;;;2.20;84.00;;;;;;5071923;28;20218;-79
2022/04/01 07:08:26;;;;;;;3.00;2.20;;;2.20;84.30;;;;;;5073216;28;20223;-79
2022/04/01 07:10:53;;;;;;;4.67;2.50;;;2.20;84.30;;;;;;5089984;28;20244;-80
2022/04/01 07:13:19;;;;;;;5.47;2.53;;;2.20;84.00;;;;;;5090259;28;20244;-79
2022/04/01 07:15:47;;;;;;;5.87;2.40;;;2.30;84.00;;;;;;5089988;28;20245;-80
2022/04/01 07:18:15;;;;;;;6.83;2.30;;;2.30;84.20;;;;;;5074615;28;20223;-80
2022/04/01 07:20:41;;;;;;;3.90;2.20;;;2.40;84.40;;;;;;5091332;28;20219;-79
2022/04/01 07:23:09;;;;;;;8.00;2.37;;;2.50;84.00;;;;;;5090711;28;20321;-79
2022/04/01 07:25:37;;;;;;;8.10;2.20;;;2.50;83.80;;;;;;5090156;28;20236;-80
2022/04/01 07:28:04;;;;;;;3.50;2.20;;;2.50;83.60;;;;;;5093371;28;20701;-80
2022/04/01 07:30:31;;;;;;;4.03;2.10;;;2.50;83.40;;;;;;5093496;28;20589;-79
2022/04/01 07:32:58;;;;;;;3.23;2.10;;;2.60;83.60;;;;;;5087723;28;20755;-80
2022/04/01 07:35:26;;;;;;;3.97;2.23;;;2.60;83.50;;;;;;5083870;28;20302;-79
2022/04/01 07:37:53;;;;;;;3.67;2.27;;;2.60;83.30;;;;;;5090915;28;20236;-79
2022/04/01 07:40:21;;;;;;;3.83;2.30;;;2.70;83.10;;;;;;5072326;28;20223;-80
2022/04/01 07:42:49;;;;;;;3.97;2.33;;;2.80;83.50;;;;;;5069039;28;20233;-80
2022/04/01 07:45:16;;;;;;;3.87;2.33;;;2.80;83.60;;;;;;5086900;28;20234;-79
2022/04/01 07:47:44;;;;;;;3.80;2.40;;;2.90;83.10;;;;;;5087480;28;20474;-79
2022/04/01 07:50:13;;;;;;;4.93;2.50;;;2.90;82.90;;;;;;5074650;28;20215;-79
2022/04/01 07:52:42;;;;;;;3.33;2.13;;;3.00;82.80;;;;;;5072092;28;20238;-79
2022/04/01 07:55:10;;;;;;;4.87;2.20;;;3.10;82.60;;;;;;5069387;28;20280;-79
2022/04/01 07:57:39;;;;;;;4.83;2.50;;;3.20;83.00;;;;;;5069271;28;20238;-80
2022/04/01 08:00:07;;;;;;;3.90;2.27;;;3.20;82.50;;;;;;5084751;28;20230;-79
2022/04/01 08:02:44;;;;;;;4.40;2.20;;;3.30;82.30;;;;;;5087572;28;20237;-83
2022/04/01 08:05:10;;;;;;;4.60;2.27;;;3.30;82.10;;;;;;5075561;28;20700;-83
2022/04/01 08:07:37;;;;;;;3.43;2.17;;;3.40;81.20;;;;;;5073789;28;20678;-82
2022/04/01 08:10:06;;;;;;;4.43;2.50;;;3.40;80.80;;;;;;5091818;28;20310;-83
2022/04/01 08:12:34;;;;;;;4.10;2.30;;;3.50;80.80;;;;;;5072349;28;20262;-84
2022/04/01 08:15:04;;;;;;;5.80;2.40;;;3.50;80.50;;;;;;5090373;28;20234;-82
2022/04/01 08:17:31;;;;;;;4.97;2.67;;;3.60;80.40;;;;;;5087413;28;20237;-82
2022/04/01 08:19:58;;;;;;;4.60;2.40;;;3.60;80.10;;;;;;5090295;28;21387;-83
2022/04/01 08:22:25;;;;;;;4.47;2.50;;;3.60;80.20;;;;;;5090598;28;20332;-83
2022/04/01 08:24:51;;;;;;;6.67;2.47;;;3.70;80.40;;;;;;5090528;28;20325;-84
2022/04/01 08:27:18;;;;;;;5.20;2.20;;;3.80;80.60;;;;;;5091201;28;20222;-82
2022/04/01 08:29:45;;;;;;;2.77;2.13;;;3.80;79.60;;;;;;5075885;28;20275;-83
2022/04/01 08:32:13;;;;;;;3.97;2.20;;;3.80;78.40;;;;;;5090649;28;20281;-83
2022/04/01 08:34:40;;;;;;;4.27;2.50;;;3.80;78.20;;;;;;5091668;28;20222;-85
2022/04/01 08:37:08;;;;;;;4.33;2.20;;;3.80;78.00;;;;;;5090985;28;20283;-83
2022/04/01 08:39:35;;;;;;;4.57;2.77;;;3.80;78.60;;;;;;5090483;28;20223;-83
2022/04/01 08:42:04;;;;;;;3.33;2.20;;;3.90;77.90;;;;;;5089352;28;20229;-82
2022/04/01 08:44:33;;;;;;;5.33;2.43;;;3.90;78.40;;;;;;5089803;28;20671;-83
2022/04/01 08:47:00;;;;;;;5.30;2.70;;;4.00;78.40;;;;;;5075717;28;20247;-82
2022/04/01 08:49:28;;;;;;;3.53;2.50;;;4.10;78.30;;;;;;5079192;28;20285;-83
2022/04/01 08:51:56;;;;;;;3.20;2.07;;;4.20;77.90;;;;;;5076618;28;20225;-83
2022/04/01 08:54:22;;;;;;;5.27;2.70;;;4.30;77.50;;;;;;5090691;28;20317;-83
2022/04/01 08:56:49;;;;;;;4.30;2.43;;;4.30;76.40;;;;;;5090311;28;20231;-83
2022/04/01 08:59:15;;;;;;;6.10;2.50;;;4.40;76.20;;;;;;5072313;28;20225;-82
2022/04/01 09:01:44;;;;;;;4.17;2.30;;;4.40;75.60;;;;;;5092210;28;20245;-82
2022/04/01 09:04:21;;;;;;;4.90;2.50;;;4.50;75.30;;;;;;5089602;28;20312;-82
2022/04/01 09:06:50;;;;;;;4.27;2.47;;;4.60;74.80;;;;;;5073133;28;20218;-82
2022/04/01 09:09:25;;;;;;;3.17;2.43;;;4.60;74.20;;;;;;5090477;28;20242;-82
2022/04/01 09:12:08;;;;;;;4.37;2.37;;;4.60;75.00;;;;;;5072840;28;20312;-83
2022/04/01 09:14:36;;;;;;;4.27;2.60;;;4.70;74.80;;;;;;5085829;28;20287;-83
2022/04/01 09:17:06;;;;;;;4.03;2.20;;;4.70;75.10;;;;;;5091486;28;20226;-82
2022/04/01 09:19:36;;;;;;;3.37;2.13;;;4.80;74.60;;;;;;5089310;28;20234;-83
2022/04/01 09:22:22;;;;;;;4.40;2.57;;;4.80;72.40;;;;;;5090725;28;20225;-83
2022/04/01 09:24:57;;;;;;;5.10;2.60;;;4.80;72.40;;;;;;5088888;28;20259;-83
2022/04/01 09:27:41;;;;;;;5.13;2.40;;;4.80;73.00;;;;;;5079745;28;20232;-83
2022/04/01 09:30:10;;;;;;;5.83;2.23;;;4.80;73.20;;;;;;5080201;28;20224;-83
2022/04/01 09:32:38;;;;;;;4.73;2.30;;;4.90;73.80;;;;;;5072921;28;20289;-83
2022/04/01 09:35:06;;;;;;;3.77;2.13;;;4.90;73.70;;;;;;5089337;28;20224;-82
2022/04/01 09:37:42;;;;;;;3.40;2.10;;;5.00;72.30;;;;;;5076401;28;20262;-82
2022/04/01 09:40:11;;;;;;;5.10;2.40;;;4.90;72.90;;;;;;5089137;28;20223;-83
2022/04/01 09:42:39;;;;;;;4.50;2.03;;;5.00;73.00;;;;;;5089960;28;20877;-82
2022/04/01 09:45:07;;;;;;;5.23;2.20;;;5.00;72.90;;;;;;5071965;28;20232;-82
2022/04/01 09:47:38;;;;;;;2.73;2.07;;;5.00;72.70;;;;;;5088159;28;20694;-82
2022/04/01 09:50:15;;;;;;;4.67;2.10;;;5.10;73.50;;;;;;5089067;28;20219;-82
2022/04/01 09:52:45;;;;;;;3.13;1.90;;;5.20;73.70;;;;;;5089019;28;20272;-83
2022/04/01 09:55:12;;;;;;;2.97;1.73;;;5.20;72.80;;;;;;5077621;28;20234;-83
2022/04/01 09:57:40;;;;;;;3.00;2.00;;;5.30;72.80;;;;;;5091318;28;20368;-83
2022/04/01 10:00:09;;;;;;;3.30;2.10;;;5.30;73.10;;;;;;5089576;28;20303;-82
2022/04/01 10:02:40;;;;;;;5.67;2.00;;;5.40;73.40;;;;;;5087202;28;20229;-82
2022/04/01 10:05:07;;;;;;;2.90;1.93;;;5.40;72.10;;;;;;5088538;28;20223;-82
2022/04/01 10:07:35;;;;;;;3.10;1.80;;;5.40;71.30;;;;;;5084794;28;20274;-83
2022/04/01 10:10:05;;;;;;;4.53;2.00;;;5.40;71.90;;;;;;5070869;28;20234;-81
2022/04/01 10:12:37;;;;;;;2.87;1.90;;;5.50;71.70;;;;;;5069628;28;20223;-81
2022/04/01 10:15:07;;;;;;;4.27;1.80;;;5.50;71.00;;;;;;5077318;28;20223;-81
2022/04/01 10:17:39;;;;;;;3.57;1.87;;;5.50;72.10;;;;;;5088833;28;20276;-82
2022/04/01 10:20:08;;;;;;;2.77;1.70;;;5.50;70.90;;;;;;5079674;28;20646;-82
2022/04/01 10:22:36;;;;;;;4.73;2.10;;;5.50;70.90;;;;;;5088679;28;20616;-82
2022/04/01 10:25:12;;;;;;;4.33;2.03;;;5.40;70.70;;;;;;5088498;28;20224;-81
2022/04/01 10:27:44;;;;;;;4.47;2.00;;;5.40;71.00;;;;;;5087009;28;20262;-81
2022/04/01 10:30:15;;;;;;;2.00;1.80;;;5.40;71.40;;;;;;5086731;28;20223;-81
2022/04/01 10:32:43;;;;;;;4.73;2.00;;;5.30;71.50;;;;;;5086314;28;20277;-81
2022/04/01 10:35:22;;;;;;;4.17;2.00;;;5.30;71.50;;;;;;5088792;28;20299;-82
2022/04/01 10:37:54;;;;;;;3.97;1.80;;;5.20;72.20;;;;;;5087693;28;20335;-81
2022/04/01 10:40:22;;;;;;;3.20;1.70;;;5.20;72.50;;;;;;5084923;28;20224;-79
2022/04/01 10:42:49;;;;;;;3.43;1.93;;;5.20;72.80;;;;;;5084836;28;20235;-78
2022/04/01 10:45:25;;;;;;;2.50;1.70;;;5.20;72.60;;;;;;5088719;28;20267;-79
2022/04/01 10:53:41;;;;;;;3.80;1.80;;;5.10;72.50;;;;;;5083257;28;20794;-79
2022/04/01 10:56:31;;;;;;;3.40;2.10;;;5.20;72.90;;;;;;5084780;28;20226;-79
2022/04/01 10:59:03;;;;;;;3.67;1.73;;;5.20;73.10;;;;;;5083935;28;20219;-79
2022/04/01 11:01:32;;;;;;;7.23;2.03;;;5.30;72.70;;;;;;5088772;28;20229;-78
2022/04/01 11:04:02;;;;;;;3.77;1.80;;;5.30;72.80;;;;;;5088817;28;20246;-79
2022/04/01 11:06:31;;;;;;;4.87;1.80;;;5.30;72.10;;;;;;5091195;28;20237;-78
2022/04/01 11:08:58;;;;;;;3.67;2.13;;;5.30;71.50;;;;;;5088831;28;20235;-79
2022/04/01 11:11:26;;;;;;;3.37;2.00;;;5.30;73.10;;;;;;5091670;28;20226;-78
2022/04/01 11:14:05;;;;;;;3.70;1.70;;;5.30;72.50;;;;;;5072936;28;20227;-79
2022/04/01 11:16:46;;;;;;;3.73;1.40;;;5.30;72.00;;;;;;5088634;28;20241;-79
2022/04/01 11:19:18;;;;;;;5.33;1.60;;;5.20;71.50;;;;;;5073858;28;20216;-79
2022/04/01 11:21:46;;;;;;;2.27;1.40;;;5.20;72.90;;;;;;5073175;28;20663;-78
2022/04/01 11:24:33;;;;;;;4.60;1.63;;;5.20;72.60;;;;;;5090976;28;20896;-79
2022/04/01 11:27:07;;;;;;;3.13;2.03;;;5.20;73.10;;;;;;5090638;28;20220;-79
2022/04/01 11:29:36;;;;;;;3.43;1.57;;;5.20;73.50;;;;;;5088118;28;20309;-78
2022/04/01 11:32:07;;;;;;;8.87;1.60;;;5.20;73.30;;;;;;5089836;28;20224;-78
2022/04/01 11:34:54;;;;;;;5.70;1.80;;;5.20;73.20;;;;;;5090085;28;20227;-79
2022/04/01 11:37:21;;;;;;;8.57;2.07;;;5.10;73.60;;;;;;5074581;28;20630;-78
2022/04/01 11:39:48;;;;;;;5.13;1.90;;;5.20;73.60;;;;;;5092232;28;20253;-79
2022/04/01 11:42:15;;;;;;;4.17;1.90;;;5.10;73.20;;;;;;5088284;28;20305;-78
2022/04/01 11:44:58;;;;;;;3.37;1.83;;;5.10;72.90;;;;;;5089273;28;20231;-78
2022/04/01 11:47:32;;;;;;;3.57;1.53;;;5.10;73.40;;;;;;5087013;28;20700;-78
2022/04/01 11:50:10;;;;;;;2.93;1.40;;;5.10;73.50;;;;;;5084236;28;20224;-79
2022/04/01 11:52:38;;;;;;;3.63;1.67;;;5.10;73.50;;;;;;5072446;28;20340;-78
2022/04/01 11:55:12;;;;;;;5.67;2.10;;;5.10;73.30;;;;;;5095789;28;20235;-78
2022/04/01 11:57:40;;;;;;;2.83;1.80;;;5.20;73.50;;;;;;5090935;28;20261;-80
2022/04/01 12:00:12;;;;;;;3.47;1.93;;;5.20;74.00;;;;;;5085651;28;20318;-83
2022/04/01 12:02:39;;;;;;;4.40;2.00;;;5.20;74.20;;;;;;5089225;28;20722;-84
2022/04/01 12:05:07;;;;;;;6.80;2.00;;;5.20;74.20;;;;;;5090361;28;20680;-84
2022/04/01 12:10:19;;;;;;;4.87;1.73;;;5.20;72.90;;;;;;5079258;28;20777;-83
2022/04/01 12:12:53;;;;;;;3.00;1.50;;;5.20;73.00;;;;;;5088282;28;20312;-84
2022/04/01 12:15:32;;;;;;;2.10;1.67;;;5.10;72.30;;;;;;5073162;28;20221;-84
2022/04/01 12:18:00;;;;;;;8.40;1.90;;;5.20;73.10;;;;;;5088839;28;20235;-83
2022/04/01 12:20:28;;;;;;;5.10;2.37;;;5.20;72.90;;;;;;5088939;28;20306;-84
2022/04/01 12:22:57;;;;;;;4.23;1.57;;;5.20;73.30;;;;;;5088207;28;20257;-83
2022/04/01 12:25:24;;;;;;;4.03;1.90;;;5.20;73.50;;;;;;5072575;28;20227;-82
2022/04/01 12:27:55;;;;;;;4.03;2.10;;;5.30;74.30;;;;;;5076350;28;20249;-81
2022/04/01 12:30:31;;;;;;;2.33;1.60;;;5.40;73.70;;;;;;5085314;28;20352;-82
2022/04/01 12:33:01;;;;;;;3.70;1.70;;;5.50;73.30;;;;;;5085822;28;20247;-82
2022/04/01 12:35:29;;;;;;;2.77;1.50;;;5.50;72.60;;;;;;5084997;28;20244;-82
2022/04/01 12:38:06;;;;;;;3.47;1.67;;;5.60;73.20;;;;;;5081618;28;20584;-82
2022/04/01 12:40:49;;;;;;;3.60;2.00;;;5.70;73.00;;;;;;5085432;28;20229;-82
2022/04/01 12:43:40;;;;;;;2.83;1.87;;;5.70;73.50;;;;;;5071963;28;20282;-82
2022/04/01 12:46:09;;;;;;;5.83;1.90;;;5.80;72.40;;;;;;5086003;28;20816;-83
2022/04/01 12:48:47;;;;;;;3.73;2.10;;;5.80;72.60;;;;;;5085855;28;20903;-82
2022/04/01 12:51:19;;;;;;;4.50;2.50;;;5.80;72.10;;;;;;5084334;28;20340;-83
2022/04/01 12:53:53;;;;;;;3.43;1.83;;;5.70;72.00;;;;;;5086144;28;20641;-82
2022/04/01 12:56:22;;;;;;;2.80;1.60;;;5.60;72.20;;;;;;5085902;28;21022;-82
2022/04/01 12:58:51;;;;;;;3.53;1.97;;;5.50;71.50;;;;;;5066716;28;21797;-82
2022/04/01 13:01:25;;;;;;;3.07;1.80;;;5.40;71.80;;;;;;5072606;28;20232;-83
2022/04/01 13:03:53;;;;;;;3.40;1.83;;;5.30;72.30;;;;;;5085783;28;20229;-82
2022/04/01 13:06:23;;;;;;;3.77;1.57;;;5.20;72.60;;;;;;5088015;28;20233;-82
2022/04/01 13:09:03;;;;;;;3.97;2.00;;;5.20;72.70;;;;;;5087791;28;20278;-82
2022/04/01 13:11:39;;;;;;;3.90;1.60;;;5.10;73.00;;;;;;5087449;28;20612;-82
2022/04/01 13:14:17;;;;;;;5.47;1.80;;;5.00;73.60;;;;;;5069364;28;20250;-82
2022/04/01 13:16:46;;;;;;;4.23;1.80;;;5.00;73.70;;;;;;5088380;28;20709;-82
2022/04/01 13:19:26;;;;;;;3.30;1.50;;;4.90;73.40;;;;;;5087976;28;20227;-82
2022/04/01 13:21:54;;;;;;;2.20;1.60;;;4.80;73.30;;;;;;5081781;28;20231;-83
2022/04/01 13:24:23;;;;;;;3.67;1.60;;;4.70;73.30;;;;;;5076273;28;20712;-83
2022/04/01 13:26:50;;;;;;;3.73;1.70;;;4.70;74.30;;;;;;5070613;28;20245;-82
2022/04/01 13:29:17;;;;;;;3.40;1.70;;;4.60;74.40;;;;;;5087035;28;20235;-82
2022/04/01 13:31:46;;;;;;;4.63;1.43;;;4.60;74.50;;;;;;5087808;28;20220;-82
2022/04/01 13:34:13;;;;;;;3.43;1.43;;;4.60;74.30;;;;;;5077743;28;20218;-82
2022/04/01 13:36:40;;;;;;;5.53;1.90;;;4.70;74.80;;;;;;5088345;28;20239;-82